Bixby, Oklahoma
Current Conditions -  °F | °C
As of 5:53 AM on Thursday 23 Oct 2014 (Local Time) from KRVS Reporting Station
Overcast Overcast  
Wind Chill: 62°   Ceiling: 8000
Heat Index: 62°   Visibility: 10mi
Dew Point: 58°   Wind: 3mph
Humidity: 86%   Direction: 170°S
Pressure: 30.12"   Gusts: NA
Location:  35.94°N, 95.88°W
Report Text: KRVS 231053Z AUTO 17003KT 10SM FEW065 BKN080 OVC095 17/14 A3012 RMK AO2 RAE05 SLP205 P0000 T01670144
Loading
Personal Weather Stations






























Interactive Weather Map New forecast layout! Learn more

10-Day Weather Forecast

Advertisements
Track Severe Weather on mobile